Flight Track Log - Related Links

Times and Time Zones

All times are in EDT time to prevent confusion due to time zone crossing. See the SWA1377 flight status page for this flight to view local times or setup timezone preferences in your user account.

Time Position Orientation Groundspeed Altitude Reporting Facility
EDT Latitude Longitude Course Direction KTS MPH feet Rate Location/Type
Mon 07:11:57 AM 29.5200 -98.4569 127° Southeast 154 177 1,800  Level Houston Center
Mon 07:12:46 AM 29.4956 -98.4192 127° Southeast 186 214 3,200 1,941 Climbing Houston Center
Mon 07:13:05 AM 29.4858 -98.4031 125° Southeast 188 216 4,000 2,100 Climbing Houston Center
Mon 07:13:46 AM 29.5006 -98.3608 68° East 248 285 5,300 1,800 Climbing Houston Center
Mon 07:14:05 AM 29.5219 -98.3558 11° North 250 288 5,800 2,325 Climbing Houston Center
Mon 07:15:06 AM 29.5958 -98.3622 356° North 268 308 8,400 2,410 Climbing Houston Center
Mon 07:16:07 AM 29.6753 -98.3667 357° North 286 329 10,700 2,430 Climbing Houston Center
Mon 07:17:07 AM 29.7753 -98.3728 357° North 337 388 13,300 2,678 Climbing Houston Center
Mon 07:18:08 AM 29.8736 -98.3786 357° North 351 404 16,100 2,852 Climbing Houston Center
Mon 07:19:09 AM 29.9761 -98.3850 357° North 368 423 19,100 2,754 Climbing Houston Center
Mon 07:20:10 AM 30.0811 -98.3908 357° North 376 433 21,700 2,331 Climbing Houston Center
Mon 07:21:10 AM 30.1908 -98.3803 North 395 455 23,800 2,033 Climbing Houston Center
Mon 07:22:11 AM 30.3100 -98.3633 North 417 480 25,800 1,918 Climbing Houston Center
Mon 07:23:12 AM 30.4217 -98.3469 North 429 494 27,700 1,820 Climbing Houston Center
Mon 07:24:13 AM 30.5428 -98.3294 North 432 497 29,500 1,672 Climbing Houston Center
Mon 07:25:14 AM 30.6642 -98.3114 North 433 498 31,100 1,623 Climbing Houston Center
Mon 07:26:15 AM 30.7875 -98.2928 North 437 503 32,800 1,537 Climbing Houston Center
Mon 07:27:15 AM 30.9111 -98.2758 North 439 505 34,200 1,517 Climbing Houston Center
Mon 07:27:42 AM 30.9744 -98.2686 North 439 505 35,000 1,517 Climbing Fort Worth Center
Mon 07:28:42 AM 31.0936 -98.2478 North 439 505 36,400 1,300 Climbing Fort Worth Center
Mon 07:29:42 AM 31.2147 -98.2294 North 439 505 37,600 950 Climbing Fort Worth Center
Mon 07:30:42 AM 31.3233 -98.2158 North 439 505 38,300 700 Climbing Fort Worth Center
Mon 07:31:42 AM 31.4406 -98.1706 18° North 439 505 39,000 350 Climbing Fort Worth Center
Mon 07:32:42 AM 31.5517 -98.0958 30° Northeast 446 513 39,000  Level Fort Worth Center
Mon 07:33:42 AM 31.6647 -98.0211 29° Northeast 452 520 39,000  Level Fort Worth Center
Mon 07:34:42 AM 31.7736 -97.9486 30° Northeast 457 526 39,000  Level Fort Worth Center
Mon 07:35:42 AM 31.8972 -97.8636 30° Northeast 463 533 39,000  Level Fort Worth Center
Mon 07:36:42 AM 32.0061 -97.7758 34° Northeast 463 533 39,000  Level Fort Worth Center
Mon 07:37:42 AM 32.1128 -97.6931 33° Northeast 468 539 39,000  Level Fort Worth Center
Mon 07:38:42 AM 32.2236 -97.6075 33° Northeast 468 539 39,000  Level Fort Worth Center
Mon 07:39:42 AM 32.3219 -97.5339 32° Northeast 463 533 39,000  Level Fort Worth Center
Mon 07:40:42 AM 32.4283 -97.4478 34° Northeast 463 533 39,000  Level Fort Worth Center
Mon 07:41:42 AM 32.5369 -97.3642 33° Northeast 463 533 39,000  Level Fort Worth Center
Mon 07:42:42 AM 32.6475 -97.2753 34° Northeast 463 533 39,000  Level Fort Worth Center
Mon 07:43:42 AM 32.7558 -97.1886 34° Northeast 463 533 39,000  Level Fort Worth Center
Mon 07:44:42 AM 32.8769 -97.0969 32° Northeast 463 533 39,000  Level Fort Worth Center
Mon 07:45:42 AM 32.9747 -97.0197 34° Northeast 463 533 39,000  Level Fort Worth Center
Mon 07:46:42 AM 33.0850 -96.9350 33° Northeast 475 547 39,000  Level Fort Worth Center
Mon 07:47:42 AM 33.1911 -96.8500 34° Northeast 463 533 39,000  Level Fort Worth Center
Mon 07:48:42 AM 33.2972 -96.7672 33° Northeast 457 526 39,000  Level Fort Worth Center
Mon 07:49:42 AM 33.4011 -96.6844 34° Northeast 457 526 39,000  Level Fort Worth Center
Mon 07:50:42 AM 33.5069 -96.5989 34° Northeast 457 526 39,000  Level Fort Worth Center
Mon 07:51:42 AM 33.6089 -96.5181 33° Northeast 451 519 39,000  Level Fort Worth Center
Mon 07:52:42 AM 33.7250 -96.4244 34° Northeast 451 519 39,000  Level Fort Worth Center
Mon 07:53:42 AM 33.8308 -96.3383 34° Northeast 456 525 39,000  Level Fort Worth Center
Mon 07:54:42 AM 33.9342 -96.2544 34° Northeast 456 525 39,000  Level Fort Worth Center
Mon 07:55:42 AM 34.0400 -96.1678 34° Northeast 461 531 39,000  Level Fort Worth Center
Mon 07:56:42 AM 34.1289 -96.0964 34° Northeast 453 521 39,000  Level Fort Worth Center
Mon 07:57:42 AM 34.2344 -96.0092 34° Northeast 448 516 39,000  Level Fort Worth Center
Mon 07:58:42 AM 34.3397 -95.9219 34° Northeast 448 516 39,000  Level Fort Worth Center
Mon 07:59:42 AM 34.4411 -95.8397 34° Northeast 443 510 39,000  Level Fort Worth Center
Mon 08:00:42 AM 34.5422 -95.7572 34° Northeast 443 510 39,000  Level Fort Worth Center
Mon 08:01:42 AM 34.6453 -95.6719 34° Northeast 443 510 39,000  Level Fort Worth Center
Mon 08:02:42 AM 34.7464 -95.5889 34° Northeast 438 504 39,000  Level Fort Worth Center
Mon 08:03:42 AM 34.8597 -95.4956 34° Northeast 438 504 39,000  Level Fort Worth Center
Mon 08:04:42 AM 34.9628 -95.4119 34° Northeast 443 510 39,000  Level Fort Worth Center
Mon 08:07:04 AM 35.1819 -95.2225 35° Northeast 443 510 39,000  Level Kansas City Center
Mon 08:08:05 AM 35.2844 -95.1369 34° Northeast 446 513 39,000  Level Kansas City Center
Mon 08:09:10 AM 35.4033 -95.0389 34° Northeast 448 516 39,000  Level Memphis Center
Mon 08:10:10 AM 35.5047 -94.9528 35° Northeast 448 516 39,000  Level Memphis Center
Mon 08:11:10 AM 35.6081 -94.8639 35° Northeast 448 516 39,000 -150 Level Memphis Center
Mon 08:12:10 AM 35.7114 -94.7750 35° Northeast 448 516 38,700 -650 Descending Memphis Center
Mon 08:13:10 AM 35.8144 -94.6883 34° Northeast 443 510 37,700 -850 Descending Memphis Center
Mon 08:14:10 AM 35.9153 -94.6039 34° Northeast 443 510 37,000 -350 Descending Memphis Center
Mon 08:15:10 AM 36.0186 -94.5142 35° Northeast 443 510 37,000  Level Memphis Center
Mon 08:16:10 AM 36.1194 -94.4269 35° Northeast 443 510 37,000  Level Memphis Center
Mon 08:17:10 AM 36.2203 -94.3394 35° Northeast 443 510 37,000  Level Memphis Center
Mon 08:18:10 AM 36.3253 -94.2492 35° Northeast 443 510 37,000  Level Memphis Center
Mon 08:19:17 AM 36.4494 -94.1392 35° Northeast 450 518 37,000  Level Kansas City Center
Mon 08:20:18 AM 36.5522 -94.0489 35° Northeast 452 520 37,000  Level Kansas City Center
Mon 08:21:21 AM 36.6544 -93.9594 35° Northeast 451 519 37,000  Level Kansas City Center
Mon 08:22:22 AM 36.7564 -93.8703 35° Northeast 450 518 37,000  Level Kansas City Center
Mon 08:23:22 AM 36.8578 -93.7800 35° Northeast 449 517 37,000  Level Kansas City Center
Mon 08:24:23 AM 36.9642 -93.6858 35° Northeast 448 516 37,000  Level Kansas City Center
Mon 08:25:26 AM 37.0667 -93.5936 36° Northeast 451 519 37,000  Level Kansas City Center
Mon 08:26:26 AM 37.1692 -93.5006 36° Northeast 453 521 37,000  Level Kansas City Center
Mon 08:27:29 AM 37.2747 -93.4106 34° Northeast 454 522 37,000  Level Kansas City Center
Mon 08:28:30 AM 37.3781 -93.3175 36° Northeast 454 522 37,000  Level Kansas City Center
Mon 08:29:32 AM 37.4808 -93.2206 37° Northeast 458 527 37,000  Level Kansas City Center
Mon 08:30:32 AM 37.5839 -93.1247 36° Northeast 458 527 37,000  Level Kansas City Center
Mon 08:31:35 AM 37.6878 -93.0278 36° Northeast 460 529 37,000  Level Kansas City Center
Mon 08:32:35 AM 37.7911 -92.9319 36° Northeast 459 528 37,000  Level Kansas City Center
Mon 08:33:36 AM 37.9133 -92.8172 37° Northeast 453 521 37,000  Level Kansas City Center
Mon 08:34:38 AM 37.9969 -92.7381 37° Northeast 452 520 37,000  Level Kansas City Center
Mon 08:35:39 AM 38.0994 -92.6411 37° Northeast 456 525 37,000  Level Kansas City Center
Mon 08:36:41 AM 38.2239 -92.5244 36° Northeast 455 524 37,000  Level Kansas City Center
Mon 08:37:43 AM 38.3336 -92.4392 31° Northeast 458 527 37,000  Level Kansas City Center
Mon 08:38:44 AM 38.4481 -92.3631 28° Northeast 460 529 37,000  Level Kansas City Center
Mon 08:39:44 AM 38.5603 -92.2861 28° Northeast 456 525 37,000  Level Kansas City Center
Mon 08:40:45 AM 38.6739 -92.2133 27° Northeast 454 522 37,000  Level Kansas City Center
Mon 08:41:47 AM 38.7767 -92.1161 36° Northeast 466 536 37,000  Level Kansas City Center
Mon 08:42:49 AM 38.8703 -92.0042 43° Northeast 461 531 37,000  Level Kansas City Center
Mon 08:43:49 AM 38.9636 -91.8925 43° Northeast 458 527 37,000  Level Kansas City Center
Mon 08:44:53 AM 39.0578 -91.7806 43° Northeast 458 527 37,000  Level Kansas City Center
Mon 08:45:54 AM 39.1628 -91.6569 42° Northeast 456 525 37,000  Level Kansas City Center
Mon 08:46:55 AM 39.2500 -91.5333 48° Northeast 467 537 37,000  Level Kansas City Center
Mon 08:47:56 AM 39.3281 -91.4000 53° Northeast 468 539 37,000  Level Kansas City Center
Mon 08:48:57 AM 39.4047 -91.2681 53° Northeast 462 532 37,000 -480 Level Kansas City Center
Mon 08:50:01 AM 39.4797 -91.1353 54° Northeast 459 528 36,000 -960 Descending Kansas City Center
Mon 08:51:02 AM 39.5550 -91.0022 54° Northeast 457 526 35,000 -942 Descending Kansas City Center
Mon 08:52:02 AM 39.6333 -90.8694 53° Northeast 460 529 34,100 -942 Descending Kansas City Center
Mon 08:53:03 AM 39.7131 -90.7403 51° Northeast 461 531 33,100 -1,008 Descending Kansas City Center
Mon 08:54:07 AM 39.7897 -90.6122 52° Northeast 448 516 32,000 -1,016 Descending Kansas City Center
Mon 08:55:07 AM 39.8772 -90.5067 43° Northeast 434 499 31,000 -500 Descending Kansas City Center
Mon 08:56:07 AM 39.9956 -90.4061 33° Northeast 425 489 31,000  Level Kansas City Center
Mon 08:56:59 AM 40.0719 -90.3372 35° Northeast 421 484 31,000  Level Chicago Center
Mon 08:58:00 AM 40.1675 -90.2514 34° Northeast 417 480 31,000 -49 Level Chicago Center
Mon 08:59:02 AM 40.2650 -90.1661 34° Northeast 420 483 30,900 -532 Descending Chicago Center
Mon 09:00:04 AM 40.3614 -90.0797 34° Northeast 420 483 29,900 -968 Descending Chicago Center
Mon 09:01:06 AM 40.4697 -89.9814 35° Northeast 422 486 28,900 -1,355 Descending Chicago Center
Mon 09:02:08 AM 40.5672 -89.8947 34° Northeast 424 488 27,100 -1,887 Descending Chicago Center
Mon 09:03:10 AM 40.6592 -89.8083 35° Northeast 409 471 25,000 -1,839 Descending Chicago Center
Mon 09:04:12 AM 40.7244 -89.6908 54° Northeast 403 464 23,300 -1,935 Descending Chicago Center
Mon 09:05:14 AM 40.7861 -89.5450 61° Northeast 382 440 21,000 -2,177 Descending Chicago Center
Mon 09:06:16 AM 40.8386 -89.4261 60° Northeast 368 423 18,800 -1,951 Descending Chicago Center
Mon 09:07:17 AM 40.8869 -89.3131 60° Northeast 355 409 17,000 -878 Descending Chicago Center
Mon 09:08:19 AM 40.9406 -89.2033 57° Northeast 353 406 17,000 -97 Level Chicago Center
Mon 09:09:21 AM 41.0061 -89.1125 46° Northeast 352 405 16,800 -968 Descending Chicago Center
Mon 09:10:23 AM 41.0711 -89.0194 47° Northeast 346 398 15,000 -1,935 Descending Chicago Center
Mon 09:11:25 AM 41.1456 -88.9094 48° Northeast 336 387 12,800 -1,887 Descending Chicago Center
Mon 09:12:27 AM 41.2053 -88.8197 48° Northeast 328 377 11,100 -1,317 Descending Chicago Center
Mon 09:13:28 AM 41.2644 -88.7347 47° Northeast 316 364 10,100 -1,073 Descending Chicago Center
Mon 09:14:30 AM 41.3172 -88.6575 48° Northeast 287 330 8,900 -1,210 Descending Chicago Center
Mon 09:15:32 AM 41.3703 -88.5800 48° Northeast 283 326 7,600 -1,258 Descending Chicago Center
Mon 09:16:34 AM 41.4314 -88.5225 35° Northeast 270 311 6,300 -774 Descending Chicago Center
Mon 09:17:36 AM 41.4822 -88.4542 45° Northeast 257 296 6,000 -290 Descending Chicago Center
Mon 09:18:38 AM 41.5047 -88.3386 75° East 266 306 5,700 -484 Descending Chicago Center
Mon 09:19:40 AM 41.5208 -88.2431 77° East 264 304 5,000 -339 Descending Chicago Center
Mon 09:20:42 AM 41.5383 -88.1497 76° East 259 298 5,000  Level Chicago Center
Mon 09:21:44 AM 41.5556 -88.0553 76° East 258 297 5,000 -48 Level Chicago Center
Mon 09:22:46 AM 41.5728 -87.9611 76° East 259 298 4,900 -726 Descending Chicago Center
Mon 09:23:48 AM 41.6078 -87.8783 60° Northeast 260 299 3,500 -1,290 Descending Chicago Center
Mon 09:24:19 AM 41.6333 -87.8167 61° Northeast 258 297 2,900 -725 Descending Chicago TRACON
Mon 09:25:19 AM 41.6667 -87.7500 56° Northeast 234 269 2,400 -550 Descending Chicago TRACON
Mon 09:26:19 AM 41.7000 -87.6833 56° Northeast 213 245 1,800 -362 Descending Chicago TRACON
Mon 09:27:15 AM 41.7500 -87.6833 360° North 189 217 1,700 -52 Descending Chicago TRACON
Mon 09:28:14 AM 41.8000 -87.6833 360° North 167 192 1,700 -384 Level Chicago TRACON
Mon 09:29:20 AM 41.8000 -87.7333 270° West 135 155 900 -727 Descending Chicago TRACON

Login

Don't have an account? Register now (free) for customized features, flight alerts, and more!